createdAt,value
2022-09-10T00:01:25.033Z,61.32
2022-09-10T00:03:53.407Z,63.37
2022-09-10T00:06:20.484Z,63.32
2022-09-10T00:08:47.483Z,63.84
2022-09-10T00:11:17.331Z,63.33
2022-09-10T00:13:43.814Z,64.20
2022-09-10T00:16:13.267Z,64.78
2022-09-10T00:18:40.419Z,64.57
2022-09-10T00:21:10.811Z,64.48
2022-09-10T00:23:37.296Z,63.84
2022-09-10T00:26:15.081Z,64.44
2022-09-10T00:28:42.893Z,64.51
2022-09-10T00:31:11.615Z,63.83
2022-09-10T00:33:38.163Z,63.45
2022-09-10T00:36:14.125Z,63.92
2022-09-10T00:38:40.580Z,63.64
2022-09-10T00:41:08.180Z,64.31
2022-09-10T00:43:48.807Z,65.05
2022-09-10T00:46:28.522Z,65.81
2022-09-10T00:48:58.408Z,65.40
2022-09-10T00:51:26.692Z,66.46
2022-09-10T00:53:54.256Z,65.98
2022-09-10T00:56:21.430Z,66.13
2022-09-10T00:58:49.190Z,65.66
2022-09-10T01:01:16.321Z,66.24
2022-09-10T01:03:44.545Z,66.20
2022-09-10T01:06:11.215Z,65.99
2022-09-10T01:08:37.979Z,66.09
2022-09-10T01:11:34.590Z,66.29
2022-09-10T01:14:23.399Z,66.32
2022-09-10T01:17:03.431Z,66.93
2022-09-10T01:19:48.149Z,65.91
2022-09-10T01:22:32.547Z,66.11
2022-09-10T01:25:25.078Z,66.42
2022-09-10T01:27:57.129Z,65.94
2022-09-10T01:30:29.800Z,67.04
2022-09-10T01:33:20.372Z,69.34
2022-09-10T01:35:53.315Z,70.20
2022-09-10T01:38:46.515Z,73.67
2022-09-10T01:41:13.759Z,73.23
2022-09-10T01:43:41.942Z,74.68
2022-09-10T01:46:54.508Z,76.03
2022-09-10T01:50:00.292Z,76.72
2022-09-10T01:52:51.571Z,76.23
2022-09-10T01:55:41.895Z,76.95
2022-09-10T01:58:28.880Z,77.17
2022-09-10T02:01:09.567Z,77.48
2022-09-10T02:03:39.354Z,77.73
2022-09-10T02:06:09.451Z,77.67
2022-09-10T02:08:40.704Z,78.20
2022-09-10T02:11:11.765Z,78.58
2022-09-10T02:13:38.751Z,78.28
2022-09-10T02:16:11.103Z,78.76
2022-09-10T02:18:39.780Z,78.28
2022-09-10T02:21:07.143Z,78.16
2022-09-10T02:23:42.573Z,78.66
2022-09-10T02:26:09.502Z,79.26
2022-09-10T02:28:36.817Z,79.24
2022-09-10T02:31:03.306Z,79.78
2022-09-10T02:33:31.070Z,80.90
2022-09-10T02:35:57.914Z,79.78
2022-09-10T02:38:24.423Z,79.84
2022-09-10T02:40:50.831Z,80.85
2022-09-10T02:43:17.760Z,80.61
2022-09-10T02:45:44.749Z,80.59
2022-09-10T02:48:11.289Z,80.44
2022-09-10T02:50:37.839Z,80.55
2022-09-10T02:53:04.524Z,79.71
2022-09-10T02:55:31.901Z,80.08
2022-09-10T02:57:58.457Z,80.00
2022-09-10T03:00:24.970Z,80.51
2022-09-10T03:02:51.407Z,80.77
2022-09-10T03:05:17.920Z,80.50
2022-09-10T03:07:44.825Z,80.99
2022-09-10T03:10:11.242Z,80.39
2022-09-10T03:12:39.156Z,80.59
2022-09-10T03:15:06.901Z,80.47
2022-09-10T03:17:33.346Z,80.58
2022-09-10T03:19:59.908Z,80.49
2022-09-10T03:22:26.342Z,80.65
2022-09-10T03:24:52.805Z,81.94
2022-09-10T03:27:20.516Z,82.56
2022-09-10T03:29:47.033Z,82.04
2022-09-10T03:32:13.460Z,81.95
2022-09-10T03:34:39.966Z,81.90
2022-09-10T03:37:06.398Z,81.87
2022-09-10T03:39:33.073Z,79.33
2022-09-10T03:41:59.591Z,78.20
2022-09-10T03:44:26.020Z,78.12
2022-09-10T03:46:52.631Z,78.09
2022-09-10T03:49:19.711Z,81.57
2022-09-10T03:51:48.170Z,82.61
2022-09-10T03:54:15.094Z,84.47
2022-09-10T03:56:41.609Z,84.77
2022-09-10T03:59:08.088Z,84.79
2022-09-10T04:01:34.580Z,86.27
2022-09-10T04:04:02.785Z,86.57
2022-09-10T04:06:32.240Z,87.31
2022-09-10T04:09:00.348Z,88.45
2022-09-10T04:11:27.844Z,88.58
2022-09-10T04:13:55.650Z,89.91
2022-09-10T04:16:23.387Z,90.57
2022-09-10T04:18:51.115Z,91.13
2022-09-10T04:21:17.852Z,91.96
2022-09-10T04:23:45.615Z,91.34
2022-09-10T04:26:14.638Z,89.84
2022-09-10T04:28:41.672Z,90.76
2022-09-10T04:31:08.198Z,91.09
2022-09-10T04:33:34.924Z,91.55
2022-09-10T04:36:01.677Z,91.48
2022-09-10T04:38:30.492Z,91.91
2022-09-10T04:40:58.382Z,91.31
2022-09-10T04:43:25.661Z,92.09
2022-09-10T04:45:52.989Z,92.89
2022-09-10T04:48:19.434Z,94.35
2022-09-10T04:51:05.398Z,94.30
2022-09-10T04:53:34.397Z,94.71
2022-09-10T04:56:01.074Z,94.26
2022-09-10T04:58:27.506Z,95.22
2022-09-10T05:00:55.906Z,94.11
2022-09-10T05:03:23.093Z,93.73
2022-09-10T05:05:49.537Z,94.14
2022-09-10T05:08:16.011Z,94.63
2022-09-10T05:10:42.530Z,94.12
2022-09-10T05:13:09.173Z,94.43
2022-09-10T05:15:35.822Z,94.56
2022-09-10T05:18:02.329Z,95.91
2022-09-10T05:20:28.852Z,96.56
2022-09-10T05:22:55.310Z,97.43
2022-09-10T05:25:22.338Z,95.77
2022-09-10T05:27:49.442Z,94.11
2022-09-10T05:30:17.179Z,93.50
2022-09-10T05:32:43.629Z,94.03
2022-09-10T05:35:10.338Z,93.71
2022-09-10T05:37:36.821Z,92.89
2022-09-10T05:40:06.397Z,90.68
2022-09-10T05:42:32.919Z,90.68
2022-09-10T05:44:59.375Z,90.80
2022-09-10T05:47:25.785Z,90.62
2022-09-10T05:49:52.218Z,89.07
2022-09-10T05:52:21.711Z,89.30
2022-09-10T05:54:48.118Z,89.51
2022-09-10T05:57:18.085Z,87.61
2022-09-10T05:59:46.272Z,86.12
2022-09-10T06:02:21.774Z,85.95
2022-09-10T06:04:50.292Z,86.66
2022-09-10T06:07:16.706Z,88.86
2022-09-10T06:09:43.497Z,87.08
2022-09-10T06:12:09.993Z,87.86
2022-09-10T06:14:36.438Z,90.06
2022-09-10T06:17:02.946Z,90.81
2022-09-10T06:19:29.660Z,91.28
2022-09-10T06:21:56.156Z,91.07
2022-09-10T06:24:24.422Z,87.36
2022-09-10T06:26:50.898Z,85.99
2022-09-10T06:29:19.196Z,86.23
2022-09-10T06:31:47.102Z,86.70
2022-09-10T06:34:14.090Z,85.61
2022-09-10T06:36:41.457Z,85.14
2022-09-10T06:39:07.958Z,84.69
2022-09-10T06:41:34.608Z,83.25
2022-09-10T06:44:01.161Z,82.67
2022-09-10T06:49:14.782Z,80.52
2022-09-10T06:51:41.291Z,80.07
2022-09-10T06:54:07.855Z,79.04
2022-09-10T06:56:34.641Z,78.18
2022-09-10T06:59:02.707Z,77.45
2022-09-10T07:01:29.934Z,78.45
2022-09-10T07:03:58.133Z,78.24
2022-09-10T07:06:25.945Z,77.75
2022-09-10T07:08:57.011Z,77.49
2022-09-10T07:11:24.671Z,77.42
2022-09-10T07:13:53.200Z,75.58
2022-09-10T07:16:24.934Z,74.95
2022-09-10T07:18:54.501Z,73.09
2022-09-10T07:21:22.748Z,72.08
2022-09-10T07:23:51.864Z,72.68
2022-09-10T07:26:19.692Z,71.58
2022-09-10T07:28:46.513Z,72.66
2022-09-10T07:31:14.077Z,72.52
2022-09-10T07:33:40.597Z,72.65
2022-09-10T07:36:07.162Z,72.16
2022-09-10T07:38:33.888Z,73.09
2022-09-10T07:41:00.698Z,71.49
2022-09-10T07:43:27.196Z,71.32
2022-09-10T07:45:53.682Z,70.69
2022-09-10T07:48:20.165Z,71.16
2022-09-10T07:50:46.585Z,71.48
2022-09-10T07:53:13.542Z,72.30
2022-09-10T07:55:40.404Z,71.46
2022-09-10T07:58:06.821Z,70.48
2022-09-10T08:00:33.354Z,70.86
2022-09-10T08:02:59.841Z,70.10
2022-09-10T08:05:27.585Z,70.60
2022-09-10T08:07:54.311Z,68.58
2022-09-10T08:10:21.618Z,69.31
2022-09-10T08:12:48.046Z,70.87
2022-09-10T08:15:14.774Z,70.66
2022-09-10T08:17:41.233Z,69.30
2022-09-10T08:20:09.980Z,71.31
2022-09-10T08:22:36.450Z,72.85
2022-09-10T08:25:03.217Z,76.18
2022-09-10T08:27:29.705Z,77.84
2022-09-10T08:29:56.366Z,79.62
2022-09-10T08:32:23.618Z,80.75
2022-09-10T08:34:50.048Z,80.91
2022-09-10T08:37:16.654Z,80.16
2022-09-10T08:39:43.227Z,81.42
2022-09-10T08:42:24.637Z,81.35
2022-09-10T08:44:55.884Z,82.86
2022-09-10T08:47:26.481Z,83.47
2022-09-10T08:50:23.828Z,82.96
2022-09-10T08:52:57.441Z,82.19
2022-09-10T08:55:29.848Z,83.97
2022-09-10T08:58:02.445Z,84.21
2022-09-10T09:00:33.321Z,84.28
2022-09-10T09:03:12.686Z,83.47
2022-09-10T09:05:49.018Z,83.35
2022-09-10T09:08:19.812Z,83.47
2022-09-10T09:10:59.491Z,81.71
2022-09-10T09:13:48.976Z,81.97
2022-09-10T09:16:21.458Z,80.87
2022-09-10T09:19:02.080Z,80.40
2022-09-10T09:21:41.630Z,80.33
2022-09-10T09:24:22.303Z,79.29
2022-09-10T09:26:49.756Z,76.10
2022-09-10T09:29:24.106Z,76.58
2022-09-10T09:31:57.611Z,75.66
2022-09-10T09:34:50.529Z,75.81
2022-09-10T09:37:21.439Z,72.91
2022-09-10T09:40:07.063Z,76.24
2022-09-10T09:42:49.266Z,74.37
2022-09-10T09:45:23.474Z,73.63
2022-09-10T09:47:50.894Z,72.75
2022-09-10T09:50:20.962Z,77.52
2022-09-10T09:52:47.690Z,75.94
2022-09-10T09:55:28.632Z,75.59
2022-09-10T09:58:26.771Z,75.46
2022-09-10T10:01:10.485Z,75.55
2022-09-10T10:03:54.735Z,73.54
2022-09-10T10:06:53.083Z,72.41
2022-09-10T10:09:27.442Z,70.14
2022-09-10T10:12:04.674Z,71.63
2022-09-10T10:14:31.067Z,69.74
2022-09-10T10:17:01.020Z,72.52
2022-09-10T10:19:36.700Z,70.46
2022-09-10T10:22:18.294Z,71.78
2022-09-10T10:24:47.113Z,71.38
2022-09-10T10:27:30.164Z,64.47
2022-09-10T10:30:21.630Z,64.98
2022-09-10T10:33:00.234Z,64.65
2022-09-10T10:35:27.241Z,64.99
2022-09-10T10:38:13.631Z,64.89
2022-09-10T10:40:53.575Z,62.14
2022-09-10T10:43:45.599Z,62.54
2022-09-10T10:46:20.908Z,62.08
2022-09-10T10:49:05.297Z,61.22
2022-09-10T10:51:37.438Z,60.77
2022-09-10T10:54:29.242Z,51.96
2022-09-10T10:57:16.923Z,51.35
2022-09-10T10:59:50.403Z,51.06
2022-09-10T11:03:01.563Z,48.91
2022-09-10T11:05:38.586Z,48.79
2022-09-10T11:08:15.105Z,42.60
2022-09-10T11:10:56.162Z,40.10
2022-09-10T11:13:37.558Z,39.98
2022-09-10T11:16:16.791Z,40.50
2022-09-10T11:18:51.964Z,39.33
2022-09-10T11:21:38.188Z,42.06
2022-09-10T11:24:13.838Z,47.18
2022-09-10T11:26:59.981Z,48.28
2022-09-10T11:29:38.251Z,48.87
2022-09-10T11:32:14.167Z,48.97
2022-09-10T11:35:04.116Z,47.02
2022-09-10T11:38:01.248Z,47.84
2022-09-10T11:40:53.397Z,42.09
2022-09-10T11:43:37.326Z,40.05
2022-09-10T11:46:11.599Z,39.87
2022-09-10T11:48:53.348Z,40.80
2022-09-10T11:51:26.297Z,40.41
2022-09-10T11:53:54.863Z,39.10
2022-09-10T11:56:38.396Z,36.29
2022-09-10T11:59:37.360Z,37.26
2022-09-10T12:02:22.364Z,40.41
2022-09-10T12:05:23.687Z,42.77
2022-09-10T12:08:23.494Z,46.85
2022-09-10T12:10:59.173Z,49.31
2022-09-10T12:13:25.724Z,53.41
2022-09-10T12:16:09.137Z,55.50
2022-09-10T12:18:42.943Z,56.50
2022-09-10T12:21:23.340Z,56.25
2022-09-10T12:26:22.201Z,53.43
2022-09-10T12:28:49.385Z,53.38
2022-09-10T12:31:18.096Z,51.90
2022-09-10T12:33:44.450Z,50.77
2022-09-10T12:36:34.534Z,51.26
2022-09-10T12:39:22.519Z,49.17
2022-09-10T12:41:49.753Z,49.35
2022-09-10T12:44:26.993Z,50.45
2022-09-10T12:47:11.987Z,51.26
2022-09-10T12:49:51.640Z,52.29
2022-09-10T12:52:24.262Z,52.85
2022-09-10T12:54:57.895Z,52.27
2022-09-10T12:57:29.939Z,53.60
2022-09-10T13:00:46.638Z,53.14
2022-09-10T13:03:19.770Z,54.66
2022-09-10T13:05:48.896Z,55.85
2022-09-10T13:08:15.261Z,56.20
2022-09-10T13:10:49.979Z,57.54
2022-09-10T13:13:49.841Z,55.80
2022-09-10T13:16:38.206Z,55.63
2022-09-10T13:19:13.486Z,56.04
2022-09-10T13:21:42.864Z,55.80
2022-09-10T13:24:34.615Z,55.23
2022-09-10T13:27:19.920Z,54.81
2022-09-10T13:29:48.242Z,55.39
2022-09-10T13:32:43.435Z,56.35
2022-09-10T13:35:30.234Z,57.44
2022-09-10T13:38:18.493Z,57.74
2022-09-10T13:40:57.214Z,58.17
2022-09-10T13:43:57.554Z,57.31
2022-09-10T13:46:41.623Z,57.32
2022-09-10T13:49:22.874Z,58.69
2022-09-10T13:51:53.046Z,58.45
2022-09-10T13:54:23.563Z,59.72
2022-09-10T13:56:50.630Z,60.66
2022-09-10T13:59:28.158Z,60.48
2022-09-10T14:01:56.133Z,60.09
2022-09-10T14:04:35.289Z,58.74
2022-09-10T14:07:13.090Z,59.64
2022-09-10T14:10:01.412Z,61.33
2022-09-10T14:12:33.126Z,61.11
2022-09-10T14:15:03.313Z,60.92
2022-09-10T14:17:43.098Z,60.88
2022-09-10T14:20:35.133Z,60.93
2022-09-10T14:23:07.969Z,60.27
2022-09-10T14:25:37.631Z,61.68
2022-09-10T14:28:15.923Z,61.07
2022-09-10T14:30:48.616Z,60.71
2022-09-10T14:33:27.669Z,59.43
2022-09-10T14:35:54.770Z,60.79
2022-09-10T14:38:25.009Z,60.45
2022-09-10T14:40:58.376Z,59.08
2022-09-10T14:43:33.995Z,60.05
2022-09-10T14:46:02.145Z,57.76
2022-09-10T14:49:04.527Z,57.61
2022-09-10T14:51:30.968Z,55.47
2022-09-10T14:53:58.566Z,57.24
2022-09-10T14:56:33.389Z,56.20
2022-09-10T14:59:01.039Z,57.38
2022-09-10T15:01:28.117Z,55.86
2022-09-10T15:03:54.599Z,55.82
2022-09-10T15:06:26.022Z,56.42
2022-09-10T15:08:56.016Z,57.33
2022-09-10T15:11:25.659Z,57.24
2022-09-10T15:13:52.657Z,57.67
2022-09-10T15:16:19.143Z,57.11
2022-09-10T15:18:45.580Z,57.48
2022-09-10T15:21:15.099Z,55.84
2022-09-10T15:23:42.195Z,56.48
2022-09-10T15:26:16.109Z,56.58
2022-09-10T15:28:42.540Z,57.04
2022-09-10T15:31:10.416Z,57.44
2022-09-10T15:33:37.175Z,58.06
2022-09-10T15:36:04.038Z,57.74
2022-09-10T15:38:31.418Z,58.82
2022-09-10T15:41:12.857Z,58.09
2022-09-10T15:43:42.972Z,58.22
2022-09-10T15:46:11.172Z,58.36
2022-09-10T15:48:38.634Z,57.46
2022-09-10T15:51:10.915Z,57.99
2022-09-10T15:53:39.662Z,58.44
2022-09-10T15:56:08.289Z,58.86
2022-09-10T15:58:35.821Z,58.99
2022-09-10T16:01:13.842Z,58.47
2022-09-10T16:03:51.901Z,59.18
2022-09-10T16:06:19.735Z,59.60
2022-09-10T16:08:58.072Z,59.73
2022-09-10T16:11:25.596Z,58.21
2022-09-10T16:13:52.315Z,59.46
2022-09-10T16:16:20.871Z,60.22
2022-09-10T16:18:51.309Z,59.21
2022-09-10T16:21:22.324Z,62.29
2022-09-10T16:23:50.902Z,63.04
2022-09-10T16:26:20.330Z,62.92
2022-09-10T16:28:51.204Z,63.19
2022-09-10T16:31:26.131Z,64.60
2022-09-10T16:33:54.999Z,65.43
2022-09-10T16:36:23.491Z,67.54
2022-09-10T16:38:55.527Z,66.05
2022-09-10T16:41:24.036Z,67.09
2022-09-10T16:43:50.849Z,67.99
2022-09-10T16:46:18.401Z,68.50
2022-09-10T16:48:45.750Z,69.50
2022-09-10T16:51:15.616Z,69.78
2022-09-10T16:53:44.321Z,69.42
2022-09-10T16:56:15.961Z,68.81
2022-09-10T16:58:46.900Z,70.20
2022-09-10T17:01:14.169Z,70.58
2022-09-10T17:03:42.268Z,71.06
2022-09-10T17:06:25.916Z,70.66
2022-09-10T17:08:57.889Z,70.75
2022-09-10T17:11:26.368Z,71.53
2022-09-10T17:13:54.048Z,69.16
2022-09-10T17:16:53.195Z,70.90
2022-09-10T17:19:23.452Z,71.12
2022-09-10T17:21:52.953Z,71.02
2022-09-10T17:24:22.623Z,70.95
2022-09-10T17:26:49.936Z,71.35
2022-09-10T17:29:19.136Z,72.53
2022-09-10T17:31:47.001Z,72.68
2022-09-10T17:34:14.443Z,71.93
2022-09-10T17:36:44.662Z,72.23
2022-09-10T17:39:11.658Z,71.96
2022-09-10T17:41:39.611Z,72.21
2022-09-10T17:44:06.843Z,73.32
2022-09-10T17:46:35.055Z,73.01
2022-09-10T17:49:02.042Z,73.81
2022-09-10T17:51:31.568Z,74.07
2022-09-10T17:53:58.481Z,74.05
2022-09-10T17:56:26.468Z,73.72
2022-09-10T17:59:01.648Z,74.24
2022-09-10T18:01:33.709Z,75.13
2022-09-10T18:04:00.288Z,75.57
2022-09-10T18:06:28.840Z,75.59
2022-09-10T18:08:58.902Z,76.04
2022-09-10T18:11:28.228Z,76.51
2022-09-10T18:13:57.135Z,76.89
2022-09-10T18:16:26.693Z,76.75
2022-09-10T18:18:59.373Z,76.81
2022-09-10T18:21:31.299Z,76.10
2022-09-10T18:24:07.352Z,74.82
2022-09-10T18:26:37.157Z,75.81
2022-09-10T18:29:10.394Z,75.72
2022-09-10T18:31:45.745Z,75.21
2022-09-10T18:34:17.535Z,74.33
2022-09-10T18:36:47.735Z,74.01
2022-09-10T18:39:14.740Z,73.85
2022-09-10T18:41:42.511Z,73.42
2022-09-10T18:44:21.791Z,73.09
2022-09-10T18:46:49.801Z,72.04
2022-09-10T18:49:21.214Z,72.32
2022-09-10T18:51:48.873Z,71.93
2022-09-10T18:54:17.060Z,70.65
2022-09-10T18:56:44.981Z,71.50
2022-09-10T18:59:15.025Z,70.78
2022-09-10T19:01:46.091Z,70.69
2022-09-10T19:04:15.575Z,70.93
2022-09-10T19:06:44.754Z,70.52
2022-09-10T19:09:14.723Z,70.38
2022-09-10T19:11:43.731Z,70.04
2022-09-10T19:14:21.993Z,69.64
2022-09-10T19:16:51.539Z,69.31
2022-09-10T19:19:20.419Z,70.12
2022-09-10T19:21:48.991Z,70.39
2022-09-10T19:24:16.728Z,69.99
2022-09-10T19:26:43.674Z,70.14
2022-09-10T19:29:11.860Z,70.87
2022-09-10T19:31:40.751Z,69.42
2022-09-10T19:34:08.451Z,68.82
2022-09-10T19:36:35.852Z,69.53
2022-09-10T19:39:06.317Z,67.07
2022-09-10T19:41:35.314Z,67.68
2022-09-10T19:44:02.845Z,67.61
2022-09-10T19:46:31.025Z,65.87
2022-09-10T19:48:59.789Z,67.40
2022-09-10T19:51:28.612Z,67.45
2022-09-10T19:53:56.233Z,67.44
2022-09-10T19:56:25.809Z,65.44
2022-09-10T19:58:55.579Z,66.24
2022-09-10T20:01:33.015Z,66.86
2022-09-10T20:04:01.679Z,65.97
2022-09-10T20:06:29.884Z,66.21
2022-09-10T20:08:56.773Z,66.73
2022-09-10T20:11:25.896Z,66.67
2022-09-10T20:14:13.404Z,66.43
2022-09-10T20:16:43.250Z,66.17
2022-09-10T20:19:12.085Z,66.68
2022-09-10T20:21:39.208Z,66.52
2022-09-10T20:24:07.559Z,69.69
2022-09-10T20:26:37.437Z,70.13
2022-09-10T20:29:07.364Z,71.04
2022-09-10T20:31:36.336Z,70.93
2022-09-10T20:34:05.988Z,69.12
2022-09-10T20:36:34.860Z,67.92
2022-09-10T20:39:02.258Z,66.99
2022-09-10T20:41:32.034Z,66.75
2022-09-10T20:44:00.341Z,67.84
2022-09-10T20:46:31.281Z,68.03
2022-09-10T20:49:04.951Z,68.84
2022-09-10T20:51:36.388Z,69.67
2022-09-10T20:54:04.199Z,70.70
2022-09-10T20:56:30.954Z,71.34
2022-09-10T20:58:58.002Z,72.02
2022-09-10T21:01:26.565Z,72.56
2022-09-10T21:03:54.621Z,72.26
2022-09-10T21:06:24.527Z,73.37
2022-09-10T21:08:51.317Z,72.82
2022-09-10T21:11:20.065Z,73.75
2022-09-10T21:13:51.965Z,74.07
2022-09-10T21:16:29.545Z,74.30
2022-09-10T21:19:13.783Z,74.19
2022-09-10T21:21:41.417Z,73.81
2022-09-10T21:24:13.510Z,74.67
2022-09-10T21:26:41.824Z,72.78
2022-09-10T21:29:11.429Z,71.98
2022-09-10T21:31:38.681Z,72.93
2022-09-10T21:34:07.973Z,72.76
2022-09-10T21:36:37.128Z,73.14
2022-09-10T21:39:06.708Z,73.96
2022-09-10T21:41:35.948Z,74.41
2022-09-10T21:44:05.295Z,75.37
2022-09-10T21:46:32.364Z,75.19
2022-09-10T21:48:59.490Z,74.50
2022-09-10T21:51:26.501Z,75.28
2022-09-10T21:53:59.240Z,76.03
2022-09-10T21:56:27.777Z,74.88
2022-09-10T21:58:55.673Z,75.44
2022-09-10T22:01:28.162Z,73.27
2022-09-10T22:04:00.431Z,72.85
2022-09-10T22:06:29.503Z,74.33
2022-09-10T22:09:01.350Z,75.68
2022-09-10T22:11:34.653Z,74.68
2022-09-10T22:14:04.820Z,74.43
2022-09-10T22:16:32.801Z,75.68
2022-09-10T22:19:02.444Z,75.42
2022-09-10T22:21:29.953Z,75.09
2022-09-10T22:23:56.436Z,74.65
2022-09-10T22:26:26.045Z,74.99
2022-09-10T22:28:54.376Z,75.79
2022-09-10T22:31:23.723Z,75.95
2022-09-10T22:34:01.400Z,76.72
2022-09-10T22:36:31.464Z,76.61
2022-09-10T22:39:01.162Z,75.01
2022-09-10T22:41:29.235Z,74.69
2022-09-10T22:43:56.804Z,74.58
2022-09-10T22:46:26.736Z,74.63
2022-09-10T22:48:53.579Z,75.17
2022-09-10T22:51:25.075Z,75.64
2022-09-10T22:53:53.509Z,75.63
2022-09-10T22:56:26.082Z,76.13
2022-09-10T22:58:54.405Z,75.41
2022-09-10T23:01:23.967Z,74.84
2022-09-10T23:03:50.980Z,74.55
2022-09-10T23:06:22.536Z,73.48
2022-09-10T23:08:51.933Z,74.24
2022-09-10T23:11:24.615Z,74.15
2022-09-10T23:13:57.429Z,74.15
2022-09-10T23:16:31.090Z,74.04
2022-09-10T23:19:00.237Z,73.87
2022-09-10T23:21:28.648Z,74.41
2022-09-10T23:23:57.467Z,74.53
2022-09-10T23:26:25.046Z,75.12
2022-09-10T23:28:51.575Z,74.98
2022-09-10T23:31:20.728Z,74.76
2022-09-10T23:33:52.901Z,75.24
2022-09-10T23:36:19.414Z,74.49
2022-09-10T23:38:45.968Z,74.12
2022-09-10T23:41:12.398Z,73.79
2022-09-10T23:43:40.347Z,74.37
2022-09-10T23:46:08.917Z,73.84
2022-09-10T23:48:36.406Z,74.42
2022-09-10T23:51:03.919Z,74.29
2022-09-10T23:53:31.738Z,74.80
2022-09-10T23:55:59.175Z,75.84
2022-09-10T23:58:25.965Z,76.00
